sensor_id;sensor_type;location;lat;lon;timestamp;pressure;altitude;pressure_sealevel;temperature;humidity
33845;BME280;20145;43.118;25.694;2023-11-19T00:01:08;99181.56;;;4.50;100.00
33845;BME280;20145;43.118;25.694;2023-11-19T00:03:34;99185.81;;;4.51;100.00
33845;BME280;20145;43.118;25.694;2023-11-19T00:06:01;99208.97;;;4.69;100.00
33845;BME280;20145;43.118;25.694;2023-11-19T00:08:26;99179.94;;;4.58;100.00
33845;BME280;20145;43.118;25.694;2023-11-19T00:10:52;99201.28;;;4.64;100.00
33845;BME280;20145;43.118;25.694;2023-11-19T00:13:18;99170.44;;;4.44;100.00
33845;BME280;20145;43.118;25.694;2023-11-19T00:15:43;99182.50;;;4.61;100.00
33845;BME280;20145;43.118;25.694;2023-11-19T00:18:11;99173.88;;;4.48;99.57
33845;BME280;20145;43.118;25.694;2023-11-19T00:20:37;99160.28;;;4.49;99.39
33845;BME280;20145;43.118;25.694;2023-11-19T00:23:02;99179.03;;;4.53;99.57
33845;BME280;20145;43.118;25.694;2023-11-19T00:25:28;99158.47;;;4.40;99.67
33845;BME280;20145;43.118;25.694;2023-11-19T00:27:53;99159.31;;;4.38;99.10
33845;BME280;20145;43.118;25.694;2023-11-19T00:30:19;99195.31;;;4.65;99.61
33845;BME280;20145;43.118;25.694;2023-11-19T00:32:46;99184.22;;;4.65;99.01
33845;BME280;20145;43.118;25.694;2023-11-19T00:35:11;99199.66;;;4.74;98.42
33845;BME280;20145;43.118;25.694;2023-11-19T00:37:39;99179.97;;;4.65;98.49
33845;BME280;20145;43.118;25.694;2023-11-19T00:40:05;99206.44;;;4.74;98.92
33845;BME280;20145;43.118;25.694;2023-11-19T00:42:31;99179.94;;;4.58;98.88
33845;BME280;20145;43.118;25.694;2023-11-19T00:44:57;99207.31;;;4.74;99.31
33845;BME280;20145;43.118;25.694;2023-11-19T00:47:24;99175.69;;;4.58;98.51
33845;BME280;20145;43.118;25.694;2023-11-19T00:49:51;99185.97;;;4.67;97.57
33845;BME280;20145;43.118;25.694;2023-11-19T00:52:19;99190.16;;;4.59;97.35
33845;BME280;20145;43.118;25.694;2023-11-19T00:54:45;99181.66;;;4.57;98.02
33845;BME280;20145;43.118;25.694;2023-11-19T00:57:10;99170.50;;;4.51;98.08
33845;BME280;20145;43.118;25.694;2023-11-19T00:59:37;99161.97;;;4.48;97.44
33845;BME280;20145;43.118;25.694;2023-11-19T01:02:03;99193.59;;;4.64;97.97
33845;BME280;20145;43.118;25.694;2023-11-19T01:04:35;99200.47;;;4.70;98.13
33845;BME280;20145;43.118;25.694;2023-11-19T01:07:04;99191.97;;;4.73;97.67
33845;BME280;20145;43.118;25.694;2023-11-19T01:09:31;99167.16;;;4.59;97.56
33845;BME280;20145;43.118;25.694;2023-11-19T01:12:01;99185.97;;;4.70;96.54
33845;BME280;20145;43.118;25.694;2023-11-19T01:14:28;99198.78;;;4.72;97.33
33845;BME280;20145;43.118;25.694;2023-11-19T01:16:54;99164.59;;;4.59;96.54
33845;BME280;20145;43.118;25.694;2023-11-19T01:19:21;99197.09;;;4.76;96.76
33845;BME280;20145;43.118;25.694;2023-11-19T01:21:52;99178.28;;;4.63;96.69
33845;BME280;20145;43.118;25.694;2023-11-19T01:24:23;99167.19;;;4.65;97.02
33845;BME280;20145;43.118;25.694;2023-11-19T01:26:49;99196.28;;;4.77;96.88
33845;BME280;20145;43.118;25.694;2023-11-19T01:29:14;99207.34;;;4.77;95.53
33845;BME280;20145;43.118;25.694;2023-11-19T01:31:45;99187.66;;;4.67;95.88
33845;BME280;20145;43.118;25.694;2023-11-19T01:34:12;99212.44;;;4.76;96.29
33845;BME280;20145;43.118;25.694;2023-11-19T01:36:38;99221.00;;;4.81;96.66
33845;BME280;20145;43.118;25.694;2023-11-19T01:39:04;99183.34;;;4.60;97.24
33845;BME280;20145;43.118;25.694;2023-11-19T01:41:36;99191.88;;;4.62;96.86
33845;BME280;20145;43.118;25.694;2023-11-19T01:44:02;99204.72;;;4.71;96.36
33845;BME280;20145;43.118;25.694;2023-11-19T01:46:28;99176.47;;;4.53;96.00
33845;BME280;20145;43.118;25.694;2023-11-19T01:48:55;99206.44;;;4.70;96.19
33845;BME280;20145;43.118;25.694;2023-11-19T01:51:21;99196.19;;;4.66;96.11
33845;BME280;20145;43.118;25.694;2023-11-19T01:53:47;99206.47;;;4.75;96.26
33845;BME280;20145;43.118;25.694;2023-11-19T01:56:15;99208.25;;;4.82;95.88
33845;BME280;20145;43.118;25.694;2023-11-19T01:58:42;99205.69;;;4.84;94.88
33845;BME280;20145;43.118;25.694;2023-11-19T02:01:09;99192.84;;;4.75;94.47
33845;BME280;20145;43.118;25.694;2023-11-19T02:03:36;99179.16;;;4.66;95.13
33845;BME280;20145;43.118;25.694;2023-11-19T02:06:03;99209.13;;;4.86;94.90
33845;BME280;20145;43.118;25.694;2023-11-19T02:08:29;99207.38;;;4.82;95.81
33845;BME280;20145;43.118;25.694;2023-11-19T02:10:55;99204.81;;;4.82;95.34
33845;BME280;20145;43.118;25.694;2023-11-19T02:13:29;99196.28;;;4.77;95.04
33845;BME280;20145;43.118;25.694;2023-11-19T02:15:54;99209.94;;;4.85;94.60
33845;BME280;20145;43.118;25.694;2023-11-19T02:18:29;99187.66;;;4.67;94.17
33845;BME280;20145;43.118;25.694;2023-11-19T02:20:57;99224.44;;;4.86;94.83
33845;BME280;20145;43.118;25.694;2023-11-19T02:23:53;99222.72;;;4.83;95.53
33845;BME280;20145;43.118;25.694;2023-11-19T02:26:29;99200.50;;;4.73;95.61
33845;BME280;20145;43.118;25.694;2023-11-19T02:28:58;99206.53;;;4.83;95.11
33845;BME280;20145;43.118;25.694;2023-11-19T02:31:25;99197.13;;;4.79;94.58
33845;BME280;20145;43.118;25.694;2023-11-19T02:33:53;99214.22;;;4.83;94.00
33845;BME280;20145;43.118;25.694;2023-11-19T02:36:24;99220.09;;;4.76;94.30
33845;BME280;20145;43.118;25.694;2023-11-19T02:39:01;99210.72;;;4.75;94.13
33845;BME280;20145;43.118;25.694;2023-11-19T02:41:29;99210.81;;;4.85;94.43
33845;BME280;20145;43.118;25.694;2023-11-19T02:44:02;99218.47;;;4.84;94.56
33845;BME280;20145;43.118;25.694;2023-11-19T02:46:30;99227.06;;;4.90;94.22
33845;BME280;20145;43.118;25.694;2023-11-19T02:48:57;99217.63;;;4.83;93.21
33845;BME280;20145;43.118;25.694;2023-11-19T02:51:25;99225.28;;;4.85;93.67
33845;BME280;20145;43.118;25.694;2023-11-19T02:53:56;99202.22;;;4.76;94.17
33845;BME280;20145;43.118;25.694;2023-11-19T02:56:22;99200.53;;;4.79;93.03
33845;BME280;20145;43.118;25.694;2023-11-19T02:58:55;99214.22;;;4.83;92.64
33845;BME280;20145;43.118;25.694;2023-11-19T03:01:22;99239.84;;;4.92;92.81
33845;BME280;20145;43.118;25.694;2023-11-19T03:03:54;99219.25;;;4.75;92.44
33845;BME280;20145;43.118;25.694;2023-11-19T03:06:24;99231.28;;;4.85;92.23
33845;BME280;20145;43.118;25.694;2023-11-19T03:08:50;99215.81;;;4.73;92.16
33845;BME280;20145;43.118;25.694;2023-11-19T03:11:16;99234.59;;;4.75;92.16
33845;BME280;20145;43.118;25.694;2023-11-19T03:13:42;99198.59;;;4.51;91.23
33845;BME280;20145;43.118;25.694;2023-11-19T03:16:08;99230.34;;;4.79;92.20
33845;BME280;20145;43.118;25.694;2023-11-19T03:18:33;99223.47;;;4.70;91.57
33845;BME280;20145;43.118;25.694;2023-11-19T03:21:11;99232.94;;;4.80;91.94
33845;BME280;20145;43.118;25.694;2023-11-19T03:23:39;99259.41;;;4.90;91.80
33845;BME280;20145;43.118;25.694;2023-11-19T03:26:05;99247.38;;;4.77;92.12
33845;BME280;20145;43.118;25.694;2023-11-19T03:28:31;99254.16;;;4.76;91.13
33845;BME280;20145;43.118;25.694;2023-11-19T03:30:57;99259.38;;;4.82;92.12
33845;BME280;20145;43.118;25.694;2023-11-19T03:33:23;99250.78;;;4.74;91.62
33845;BME280;20145;43.118;25.694;2023-11-19T03:35:56;99243.06;;;4.73;91.52
33845;BME280;20145;43.118;25.694;2023-11-19T03:38:23;99269.59;;;4.82;92.18
33845;BME280;20145;43.118;25.694;2023-11-19T03:40:49;99238.78;;;4.70;92.42
33845;BME280;20145;43.118;25.694;2023-11-19T03:43:16;99242.22;;;4.72;91.55
33845;BME280;20145;43.118;25.694;2023-11-19T03:45:42;99248.97;;;4.65;91.33
33845;BME280;20145;43.118;25.694;2023-11-19T03:48:07;99272.94;;;4.77;91.44
33845;BME280;20145;43.118;25.694;2023-11-19T03:50:58;99276.38;;;4.82;91.40
33845;BME280;20145;43.118;25.694;2023-11-19T03:53:24;99248.09;;;4.62;91.63
33845;BME280;20145;43.118;25.694;2023-11-19T03:55:50;99283.16;;;4.78;92.21
33845;BME280;20145;43.118;25.694;2023-11-19T03:58:16;99281.41;;;4.73;91.28
33845;BME280;20145;43.118;25.694;2023-11-19T04:00:45;99271.06;;;4.57;91.51
33845;BME280;20145;43.118;25.694;2023-11-19T04:03:12;99283.91;;;4.68;91.97
33845;BME280;20145;43.118;25.694;2023-11-19T04:05:38;99259.97;;;4.60;91.55
33845;BME280;20145;43.118;25.694;2023-11-19T04:08:04;99253.97;;;4.53;90.53
33845;BME280;20145;43.118;25.694;2023-11-19T04:10:30;99291.63;;;4.73;90.61
33845;BME280;20145;43.118;25.694;2023-11-19T04:12:57;99266.81;;;4.61;91.11
33845;BME280;20145;43.118;25.694;2023-11-19T04:15:35;99278.75;;;4.62;90.53
33845;BME280;20145;43.118;25.694;2023-11-19T04:18:02;99304.38;;;4.69;90.26
33845;BME280;20145;43.118;25.694;2023-11-19T04:20:28;99288.09;;;4.60;90.79
33845;BME280;20145;43.118;25.694;2023-11-19T04:22:54;99300.03;;;4.62;90.36
33845;BME280;20145;43.118;25.694;2023-11-19T04:25:20;99280.44;;;4.61;89.96
33845;BME280;20145;43.118;25.694;2023-11-19T04:27:53;99319.72;;;4.71;90.38
33845;BME280;20145;43.118;25.694;2023-11-19T04:30:23;99322.25;;;4.71;90.67
33845;BME280;20145;43.118;25.694;2023-11-19T04:32:49;99293.13;;;4.51;89.98
33845;BME280;20145;43.118;25.694;2023-11-19T04:35:15;99312.81;;;4.61;89.72
33845;BME280;20145;43.118;25.694;2023-11-19T04:37:41;99317.09;;;4.65;91.20
33845;BME280;20145;43.118;25.694;2023-11-19T04:40:08;99312.69;;;4.52;89.86
33845;BME280;20145;43.118;25.694;2023-11-19T04:42:35;99340.94;;;4.65;91.11
33845;BME280;20145;43.118;25.694;2023-11-19T04:45:00;99326.34;;;4.52;90.03
33845;BME280;20145;43.118;25.694;2023-11-19T04:47:26;99363.22;;;4.74;90.59
33845;BME280;20145;43.118;25.694;2023-11-19T04:49:51;99363.16;;;4.69;90.11
33845;BME280;20145;43.118;25.694;2023-11-19T04:52:17;99368.25;;;4.71;89.85
33845;BME280;20145;43.118;25.694;2023-11-19T04:54:43;99380.31;;;4.81;90.51
33845;BME280;20145;43.118;25.694;2023-11-19T04:57:10;99394.75;;;4.78;89.99
33845;BME280;20145;43.118;25.694;2023-11-19T04:59:38;99387.09;;;4.79;90.47
33845;BME280;20145;43.118;25.694;2023-11-19T05:02:06;99380.16;;;4.67;89.34
33845;BME280;20145;43.118;25.694;2023-11-19T05:04:31;99388.75;;;4.73;89.74
33845;BME280;20145;43.118;25.694;2023-11-19T05:06:59;99383.56;;;4.68;89.10
33845;BME280;20145;43.118;25.694;2023-11-19T05:09:26;99397.25;;;4.72;90.13
33845;BME280;20145;43.118;25.694;2023-11-19T05:11:52;99352.69;;;4.48;90.05
33845;BME280;20145;43.118;25.694;2023-11-19T05:14:17;99381.78;;;4.62;89.57
33845;BME280;20145;43.118;25.694;2023-11-19T05:16:45;99343.28;;;4.45;89.80
33845;BME280;20145;43.118;25.694;2023-11-19T05:19:11;99368.91;;;4.50;90.40
33845;BME280;20145;43.118;25.694;2023-11-19T05:21:37;99381.69;;;4.53;89.93
33845;BME280;20145;43.118;25.694;2023-11-19T05:24:03;99389.41;;;4.55;89.44
33845;BME280;20145;43.118;25.694;2023-11-19T05:26:31;99382.63;;;4.58;89.47
33845;BME280;20145;43.118;25.694;2023-11-19T05:28:57;99377.44;;;4.52;88.21
33845;BME280;20145;43.118;25.694;2023-11-19T05:31:23;99407.44;;;4.68;88.95
33845;BME280;20145;43.118;25.694;2023-11-19T05:33:48;99394.56;;;4.62;89.24
33845;BME280;20145;43.118;25.694;2023-11-19T05:36:14;99405.56;;;4.55;89.13
33845;BME280;20145;43.118;25.694;2023-11-19T05:38:40;99397.94;;;4.60;89.12
33845;BME280;20145;43.118;25.694;2023-11-19T05:41:06;99401.28;;;4.53;89.41
33845;BME280;20145;43.118;25.694;2023-11-19T05:43:32;99367.81;;;4.31;88.83
33845;BME280;20145;43.118;25.694;2023-11-19T05:45:58;99422.72;;;4.64;89.08
33845;BME280;20145;43.118;25.694;2023-11-19T05:48:26;99412.38;;;4.56;89.41
33845;BME280;20145;43.118;25.694;2023-11-19T05:50:52;99427.84;;;4.67;87.94
33845;BME280;20145;43.118;25.694;2023-11-19T05:53:17;99420.16;;;4.64;88.32
33845;BME280;20145;43.118;25.694;2023-11-19T05:55:43;99425.34;;;4.68;88.48
33845;BME280;20145;43.118;25.694;2023-11-19T05:58:15;99399.69;;;4.61;87.63
33845;BME280;20145;43.118;25.694;2023-11-19T06:00:41;99415.13;;;4.70;88.12
33845;BME280;20145;43.118;25.694;2023-11-19T06:03:07;99404.81;;;4.64;87.43
33845;BME280;20145;43.118;25.694;2023-11-19T06:05:38;99434.06;;;4.89;88.43
33845;BME280;20145;43.118;25.694;2023-11-19T06:08:04;99402.41;;;4.75;87.23
33845;BME280;20145;43.118;25.694;2023-11-19T06:10:34;99426.38;;;4.87;87.75
33845;BME280;20145;43.118;25.694;2023-11-19T06:13:01;99430.66;;;4.88;87.21
33845;BME280;20145;43.118;25.694;2023-11-19T06:15:30;99427.97;;;4.78;87.04
33845;BME280;20145;43.118;25.694;2023-11-19T06:17:56;99426.47;;;4.94;87.22
33845;BME280;20145;43.118;25.694;2023-11-19T06:20:23;99421.25;;;4.87;87.00
33845;BME280;20145;43.118;25.694;2023-11-19T06:22:49;99387.94;;;4.77;86.21
33845;BME280;20145;43.118;25.694;2023-11-19T06:25:15;99442.84;;;5.12;86.83
33845;BME280;20145;43.118;25.694;2023-11-19T06:27:42;99445.44;;;5.17;86.27
33845;BME280;20145;43.118;25.694;2023-11-19T06:30:09;99445.41;;;5.14;86.07
33845;BME280;20145;43.118;25.694;2023-11-19T06:32:35;99424.00;;;5.03;84.79
33845;BME280;20145;43.118;25.694;2023-11-19T06:35:01;99403.31;;;4.80;85.50
33845;BME280;20145;43.118;25.694;2023-11-19T06:37:30;99418.00;;;4.99;85.22
33845;BME280;20145;43.118;25.694;2023-11-19T06:39:56;99447.94;;;5.11;86.32
33845;BME280;20145;43.118;25.694;2023-11-19T06:42:22;99433.47;;;5.11;86.90
33845;BME280;20145;43.118;25.694;2023-11-19T06:44:48;99440.28;;;5.11;86.34
33845;BME280;20145;43.118;25.694;2023-11-19T06:47:13;99421.44;;;5.04;85.45
33845;BME280;20145;43.118;25.694;2023-11-19T06:49:39;99409.44;;;4.97;86.15
33845;BME280;20145;43.118;25.694;2023-11-19T06:52:04;99421.31;;;4.92;85.15
33845;BME280;20145;43.118;25.694;2023-11-19T06:54:30;99443.53;;;4.98;86.05
33845;BME280;20145;43.118;25.694;2023-11-19T06:56:56;99426.31;;;4.81;85.98
33845;BME280;20145;43.118;25.694;2023-11-19T06:59:23;99457.25;;;5.06;86.05
33845;BME280;20145;43.118;25.694;2023-11-19T07:01:49;99443.44;;;4.90;85.65
33845;BME280;20145;43.118;25.694;2023-11-19T07:04:15;99458.22;;;5.14;86.07
33845;BME280;20145;43.118;25.694;2023-11-19T07:06:41;99459.94;;;5.17;86.12
33845;BME280;20145;43.118;25.694;2023-11-19T07:09:06;99466.06;;;5.29;85.55
33845;BME280;20145;43.118;25.694;2023-11-19T07:11:37;99444.41;;;5.00;85.83
33845;BME280;20145;43.118;25.694;2023-11-19T07:14:04;99472.84;;;5.27;85.75
33845;BME280;20145;43.118;25.694;2023-11-19T07:16:29;99447.25;;;5.24;84.74
33845;BME280;20145;43.118;25.694;2023-11-19T07:18:56;99453.25;;;5.29;84.30
33845;BME280;20145;43.118;25.694;2023-11-19T07:21:21;99457.44;;;5.23;85.11
33845;BME280;20145;43.118;25.694;2023-11-19T07:23:49;99455.63;;;5.12;85.55
33845;BME280;20145;43.118;25.694;2023-11-19T07:26:17;99493.31;;;5.27;84.49
33845;BME280;20145;43.118;25.694;2023-11-19T07:28:42;99470.22;;;5.23;85.28
33845;BME280;20145;43.118;25.694;2023-11-19T07:31:10;99463.38;;;5.20;83.64
33845;BME280;20145;43.118;25.694;2023-11-19T07:33:36;99470.16;;;5.17;83.53
33845;BME280;20145;43.118;25.694;2023-11-19T07:36:03;99480.38;;;5.15;83.34
33845;BME280;20145;43.118;25.694;2023-11-19T07:38:29;99491.56;;;5.25;83.96
33845;BME280;20145;43.118;25.694;2023-11-19T07:40:54;99506.19;;;5.36;83.21
33845;BME280;20145;43.118;25.694;2023-11-19T07:43:20;99500.16;;;5.30;83.79
33845;BME280;20145;43.118;25.694;2023-11-19T07:45:45;99476.97;;;5.13;83.41
33845;BME280;20145;43.118;25.694;2023-11-19T07:48:12;99506.97;;;5.31;82.91
33845;BME280;20145;43.118;25.694;2023-11-19T07:50:41;99511.28;;;5.33;84.31
33845;BME280;20145;43.118;25.694;2023-11-19T07:53:07;99470.06;;;5.09;84.23
33845;BME280;20145;43.118;25.694;2023-11-19T07:55:34;99524.03;;;5.32;83.68
33845;BME280;20145;43.118;25.694;2023-11-19T07:58:00;99511.16;;;5.21;85.45
33845;BME280;20145;43.118;25.694;2023-11-19T08:00:26;99505.16;;;5.21;84.66
33845;BME280;20145;43.118;25.694;2023-11-19T08:02:52;99527.56;;;5.42;84.42
33845;BME280;20145;43.118;25.694;2023-11-19T08:05:17;99511.22;;;5.27;82.40
33845;BME280;20145;43.118;25.694;2023-11-19T08:07:44;99520.75;;;5.41;83.39
33845;BME280;20145;43.118;25.694;2023-11-19T08:10:10;99527.69;;;5.52;82.83
33845;BME280;20145;43.118;25.694;2023-11-19T08:12:36;99521.69;;;5.53;83.48
33845;BME280;20145;43.118;25.694;2023-11-19T08:15:03;99530.38;;;5.66;82.30
33845;BME280;20145;43.118;25.694;2023-11-19T08:17:30;99538.00;;;5.62;83.27
33845;BME280;20145;43.118;25.694;2023-11-19T08:19:56;99509.72;;;5.51;83.14
33845;BME280;20145;43.118;25.694;2023-11-19T08:22:21;99519.25;;;5.63;83.57
33845;BME280;20145;43.118;25.694;2023-11-19T08:24:48;99526.19;;;5.76;82.98
33845;BME280;20145;43.118;25.694;2023-11-19T08:27:14;99487.53;;;5.47;81.61
33845;BME280;20145;43.118;25.694;2023-11-19T08:29:39;99507.28;;;5.62;82.23
33845;BME280;20145;43.118;25.694;2023-11-19T08:32:06;99507.41;;;5.75;82.44
33845;BME280;20145;43.118;25.694;2023-11-19T08:34:32;99521.22;;;5.91;82.78
33845;BME280;20145;43.118;25.694;2023-11-19T08:36:58;99496.38;;;5.84;82.37
33845;BME280;20145;43.118;25.694;2023-11-19T08:39:24;99488.69;;;5.81;81.60
33845;BME280;20145;43.118;25.694;2023-11-19T08:41:51;99530.78;;;6.11;81.75
33845;BME280;20145;43.118;25.694;2023-11-19T08:44:16;99515.28;;;5.95;80.54
33845;BME280;20145;43.118;25.694;2023-11-19T08:46:50;99543.53;;;6.01;80.84
33845;BME280;20145;43.118;25.694;2023-11-19T08:49:15;99546.13;;;6.09;81.23
33845;BME280;20145;43.118;25.694;2023-11-19T08:51:41;99534.13;;;6.00;82.27
33845;BME280;20145;43.118;25.694;2023-11-19T08:54:07;99525.56;;;6.00;81.49
33845;BME280;20145;43.118;25.694;2023-11-19T08:56:32;99487.06;;;5.88;80.93
33845;BME280;20145;43.118;25.694;2023-11-19T08:59:01;99544.50;;;6.17;80.89
33845;BME280;20145;43.118;25.694;2023-11-19T09:01:27;99557.31;;;6.16;80.98
33845;BME280;20145;43.118;25.694;2023-11-19T09:03:53;99559.88;;;6.17;81.58
33845;BME280;20145;43.118;25.694;2023-11-19T09:06:19;99522.19;;;6.04;81.54
33845;BME280;20145;43.118;25.694;2023-11-19T09:08:45;99533.41;;;6.20;80.70
33845;BME280;20145;43.118;25.694;2023-11-19T09:11:15;99542.06;;;6.34;81.08
33845;BME280;20145;43.118;25.694;2023-11-19T09:13:42;99508.56;;;6.08;81.47
33845;BME280;20145;43.118;25.694;2023-11-19T09:16:07;99529.22;;;6.27;80.17
33845;BME280;20145;43.118;25.694;2023-11-19T09:18:35;99533.50;;;6.34;80.91
33845;BME280;20145;43.118;25.694;2023-11-19T09:21:01;99527.53;;;6.33;81.25
33845;BME280;20145;43.118;25.694;2023-11-19T09:23:28;99522.44;;;6.35;80.46
33845;BME280;20145;43.118;25.694;2023-11-19T09:25:57;99527.63;;;6.47;80.48
33845;BME280;20145;43.118;25.694;2023-11-19T09:28:24;99535.44;;;6.62;80.37
33845;BME280;20145;43.118;25.694;2023-11-19T09:30:52;99508.00;;;6.49;79.63
33845;BME280;20145;43.118;25.694;2023-11-19T09:33:21;99528.47;;;6.47;79.18
33845;BME280;20145;43.118;25.694;2023-11-19T09:35:46;99477.91;;;6.19;78.58
33845;BME280;20145;43.118;25.694;2023-11-19T09:38:15;99537.09;;;6.57;79.79
33845;BME280;20145;43.118;25.694;2023-11-19T09:40:41;99517.31;;;6.39;79.13
33845;BME280;20145;43.118;25.694;2023-11-19T09:43:07;99500.16;;;6.26;79.45
33845;BME280;20145;43.118;25.694;2023-11-19T09:45:49;99507.09;;;6.41;80.08
33845;BME280;20145;43.118;25.694;2023-11-19T09:48:18;99527.69;;;6.59;80.07
33845;BME280;20145;43.118;25.694;2023-11-19T09:50:47;99489.16;;;6.45;79.98
33845;BME280;20145;43.118;25.694;2023-11-19T09:53:15;99524.31;;;6.63;79.21
33845;BME280;20145;43.118;25.694;2023-11-19T09:55:41;99504.63;;;6.58;79.05
33845;BME280;20145;43.118;25.694;2023-11-19T09:58:08;99517.50;;;6.67;79.25
33845;BME280;20145;43.118;25.694;2023-11-19T10:00:34;99492.59;;;6.44;80.09
33845;BME280;20145;43.118;25.694;2023-11-19T10:03:00;99527.94;;;7.05;78.72
33845;BME280;20145;43.118;25.694;2023-11-19T10:05:27;99511.75;;;7.31;77.70
33845;BME280;20145;43.118;25.694;2023-11-19T10:07:55;99456.13;;;7.11;76.72
33845;BME280;20145;43.118;25.694;2023-11-19T10:10:21;99506.72;;;7.57;76.22
33845;BME280;20145;43.118;25.694;2023-11-19T10:12:47;99493.81;;;7.42;77.42
33845;BME280;20145;43.118;25.694;2023-11-19T10:15:23;99516.06;;;7.44;75.79
33845;BME280;20145;43.118;25.694;2023-11-19T10:17:50;99500.69;;;7.52;76.70
33845;BME280;20145;43.118;25.694;2023-11-19T10:20:16;99515.25;;;7.53;76.12
33845;BME280;20145;43.118;25.694;2023-11-19T10:22:41;99513.56;;;7.66;74.67
33845;BME280;20145;43.118;25.694;2023-11-19T10:25:26;99515.28;;;7.62;75.66
33845;BME280;20145;43.118;25.694;2023-11-19T10:27:53;99499.81;;;7.41;75.69
33845;BME280;20145;43.118;25.694;2023-11-19T10:30:27;99486.09;;;7.26;76.69
33845;BME280;20145;43.118;25.694;2023-11-19T10:33:05;99510.06;;;7.24;76.99
33845;BME280;20145;43.118;25.694;2023-11-19T10:35:33;99464.63;;;6.95;77.98
33845;BME280;20145;43.118;25.694;2023-11-19T10:38:00;99473.19;;;7.00;77.93
33845;BME280;20145;43.118;25.694;2023-11-19T10:40:44;99491.19;;;7.08;78.53
33845;BME280;20145;43.118;25.694;2023-11-19T10:43:10;99478.34;;;7.09;77.79
33845;BME280;20145;43.118;25.694;2023-11-19T10:45:36;99487.78;;;7.15;77.99
33845;BME280;20145;43.118;25.694;2023-11-19T10:48:03;99493.81;;;7.26;78.27
33845;BME280;20145;43.118;25.694;2023-11-19T10:50:39;99477.56;;;7.30;78.23
33845;BME280;20145;43.118;25.694;2023-11-19T10:53:06;99492.13;;;7.50;77.66
33845;BME280;20145;43.118;25.694;2023-11-19T10:55:33;99493.88;;;7.63;77.16
33845;BME280;20145;43.118;25.694;2023-11-19T10:58:09;99492.16;;;7.74;76.62
33845;BME280;20145;43.118;25.694;2023-11-19T11:00:47;99481.88;;;7.67;76.48
33845;BME280;20145;43.118;25.694;2023-11-19T11:03:24;99470.75;;;7.52;76.01
33845;BME280;20145;43.118;25.694;2023-11-19T11:05:51;99492.16;;;7.67;76.09
33845;BME280;20145;43.118;25.694;2023-11-19T11:08:18;99476.72;;;7.45;75.20
33845;BME280;20145;43.118;25.694;2023-11-19T11:10:54;99509.25;;;7.58;76.27
33845;BME280;20145;43.118;25.694;2023-11-19T11:13:23;99491.31;;;7.60;76.54
33845;BME280;20145;43.118;25.694;2023-11-19T11:15:56;99495.59;;;7.75;75.79
33845;BME280;20145;43.118;25.694;2023-11-19T11:18:24;99465.63;;;7.78;75.14
33845;BME280;20145;43.118;25.694;2023-11-19T11:20:56;99467.34;;;7.89;75.50
33845;BME280;20145;43.118;25.694;2023-11-19T11:26:52;99476.78;;;7.93;75.07
33845;BME280;20145;43.118;25.694;2023-11-19T11:37:34;99459.59;;;8.27;71.85
33845;BME280;20145;43.118;25.694;2023-11-19T11:40:02;99464.69;;;8.36;70.81
33845;BME280;20145;43.118;25.694;2023-11-19T11:42:38;99477.56;;;8.30;70.63
33845;BME280;20145;43.118;25.694;2023-11-19T11:45:14;99463.91;;;8.16;72.45
33845;BME280;20145;43.118;25.694;2023-11-19T11:50:16;99472.41;;;8.53;71.35
33845;BME280;20145;43.118;25.694;2023-11-19T11:55:34;99470.69;;;8.60;71.05
33845;BME280;20145;43.118;25.694;2023-11-19T11:58:02;99462.13;;;8.50;71.08
33845;BME280;20145;43.118;25.694;2023-11-19T12:00:37;99471.53;;;8.59;71.43
33845;BME280;20145;43.118;25.694;2023-11-19T12:03:05;99469.81;;;8.58;69.86
33845;BME280;20145;43.118;25.694;2023-11-19T12:05:32;99444.16;;;8.38;69.80
33845;BME280;20145;43.118;25.694;2023-11-19T12:08:09;99451.03;;;8.40;70.16
33845;BME280;20145;43.118;25.694;2023-11-19T12:10:43;99463.84;;;8.51;70.21
33845;BME280;20145;43.118;25.694;2023-11-19T12:13:10;99474.13;;;8.57;69.90
33845;BME280;20145;43.118;25.694;2023-11-19T12:18:26;99445.84;;;8.36;69.02
33845;BME280;20145;43.118;25.694;2023-11-19T12:20:51;99431.31;;;8.35;69.51
33845;BME280;20145;43.118;25.694;2023-11-19T12:23:17;99433.88;;;8.41;69.64
33845;BME280;20145;43.118;25.694;2023-11-19T12:25:43;99447.53;;;8.55;68.32
33845;BME280;20145;43.118;25.694;2023-11-19T12:28:14;99490.34;;;8.75;69.48
33845;BME280;20145;43.118;25.694;2023-11-19T12:30:41;99463.84;;;8.57;68.75
33845;BME280;20145;43.118;25.694;2023-11-19T12:33:11;99457.81;;;8.58;68.34
33845;BME280;20145;43.118;25.694;2023-11-19T12:35:47;99477.53;;;8.65;69.11
33845;BME280;20145;43.118;25.694;2023-11-19T12:38:24;99474.97;;;8.62;70.16
33845;BME280;20145;43.118;25.694;2023-11-19T12:41:06;99468.97;;;8.62;68.90
33845;BME280;20145;43.118;25.694;2023-11-19T12:43:32;99448.41;;;8.56;67.43
33845;BME280;20145;43.118;25.694;2023-11-19T12:45:59;99437.25;;;8.51;67.65
33845;BME280;20145;43.118;25.694;2023-11-19T12:48:25;99457.81;;;8.58;68.94
33845;BME280;20145;43.118;25.694;2023-11-19T12:50:53;99457.84;;;8.52;68.66
33845;BME280;20145;43.118;25.694;2023-11-19T12:53:20;99440.72;;;8.43;68.04
33845;BME280;20145;43.118;25.694;2023-11-19T12:55:45;99429.59;;;8.46;68.74
33845;BME280;20145;43.118;25.694;2023-11-19T12:58:28;99415.00;;;8.36;67.94
33845;BME280;20145;43.118;25.694;2023-11-19T13:01:05;99390.22;;;8.21;69.16
33845;BME280;20145;43.118;25.694;2023-11-19T13:03:35;99438.97;;;8.58;68.82
33845;BME280;20145;43.118;25.694;2023-11-19T13:06:05;99427.81;;;8.60;68.00
33845;BME280;20145;43.118;25.694;2023-11-19T13:08:49;99407.25;;;8.60;68.24
33845;BME280;20145;43.118;25.694;2023-11-19T13:11:34;99396.16;;;8.54;67.64
33845;BME280;20145;43.118;25.694;2023-11-19T13:14:01;99389.31;;;8.46;67.32
33845;BME280;20145;43.118;25.694;2023-11-19T13:16:30;99392.69;;;8.53;68.78
33845;BME280;20145;43.118;25.694;2023-11-19T13:18:56;99401.28;;;8.54;67.55
33845;BME280;20145;43.118;25.694;2023-11-19T13:21:23;99379.03;;;8.43;68.34
33845;BME280;20145;43.118;25.694;2023-11-19T13:23:49;99379.03;;;8.43;67.69